< < Back
Terminal Aerodrome Forecast


Current Version              Previous Versions:   1  2  3  4  5  6  7  8  9  

Terminal Aerodrome Forecast

080
FTUS42 KCAE 262100 AAA
TAFAGS
TAF AMD
KAGS 262137Z 2622/2718 22010KT P6SM BKN040
     FM270000 21007KT P6SM VCSH OVC050
     FM270700 VRB06KT 4SM -SHRA BR SCT007 OVC025
     FM271600 29013G19KT P6SM -RA OVC025=

Latest METAR

362
SAUS70 KWBC 262156
MTRAGS
METAR KAGS 262153Z 24008KT 10SM BKN055 23/13 A2981 RMK AO2 SLP093
T02330133


USA.gov is the U.S. government's official web portal to all federal, state and local government web resources and services.